createdAt,value
2019-03-29T00:01:01.137Z,16.07
2019-03-29T00:03:29.605Z,16.17
2019-03-29T00:05:58.085Z,15.97
2019-03-29T00:08:26.542Z,16.93
2019-03-29T00:10:54.982Z,16.17
2019-03-29T00:13:23.498Z,17.10
2019-03-29T00:15:51.969Z,16.13
2019-03-29T00:18:20.417Z,16.80
2019-03-29T00:20:48.864Z,15.60
2019-03-29T00:23:17.327Z,15.87
2019-03-29T00:25:45.766Z,16.20
2019-03-29T00:28:14.238Z,17.00
2019-03-29T00:30:42.748Z,16.63
2019-03-29T00:33:11.206Z,17.07
2019-03-29T00:35:39.651Z,17.13
2019-03-29T00:38:08.114Z,16.83
2019-03-29T00:40:36.565Z,17.17
2019-03-29T00:43:05.015Z,16.87
2019-03-29T00:45:33.454Z,16.23
2019-03-29T00:48:01.906Z,16.73
2019-03-29T00:50:30.390Z,17.13
2019-03-29T00:52:58.838Z,18.50
2019-03-29T00:55:27.286Z,17.87
2019-03-29T00:57:56.211Z,18.37
2019-03-29T01:00:25.272Z,16.47
2019-03-29T01:02:53.732Z,16.73
2019-03-29T01:05:22.173Z,17.13
2019-03-29T01:07:50.629Z,17.73
2019-03-29T01:10:19.328Z,18.53
2019-03-29T01:12:47.782Z,18.27
2019-03-29T01:15:16.214Z,18.30
2019-03-29T01:17:45.753Z,18.27
2019-03-29T01:20:14.433Z,18.53
2019-03-29T01:22:42.895Z,18.03
2019-03-29T01:25:11.413Z,18.30
2019-03-29T01:27:39.887Z,17.40
2019-03-29T01:30:08.563Z,18.10
2019-03-29T01:32:37.020Z,18.53
2019-03-29T01:35:09.144Z,18.20
2019-03-29T01:37:37.833Z,19.60
2019-03-29T01:40:06.594Z,19.03
2019-03-29T01:42:35.058Z,20.27
2019-03-29T01:45:04.678Z,19.93
2019-03-29T01:47:33.115Z,21.10
2019-03-29T01:50:01.583Z,19.73
2019-03-29T01:52:31.572Z,20.73
2019-03-29T01:55:00.421Z,20.13
2019-03-29T01:57:28.910Z,20.23
2019-03-29T01:59:57.377Z,20.17
2019-03-29T02:02:25.892Z,19.07
2019-03-29T02:04:54.342Z,18.30
2019-03-29T02:07:22.779Z,18.63
2019-03-29T02:09:51.250Z,19.70
2019-03-29T02:12:19.681Z,18.67
2019-03-29T02:14:48.141Z,18.57
2019-03-29T02:17:16.594Z,19.17
2019-03-29T02:19:45.044Z,18.23
2019-03-29T02:22:13.562Z,18.20
2019-03-29T02:24:42.016Z,17.83
2019-03-29T02:27:10.450Z,18.57
2019-03-29T02:29:38.913Z,18.50
2019-03-29T02:32:07.338Z,18.20
2019-03-29T02:34:35.798Z,18.03
2019-03-29T02:37:04.315Z,18.40
2019-03-29T02:39:32.853Z,18.17
2019-03-29T02:42:01.307Z,18.10
2019-03-29T02:44:29.769Z,18.60
2019-03-29T02:46:58.222Z,18.13
2019-03-29T02:49:26.756Z,19.37
2019-03-29T02:51:55.267Z,19.53
2019-03-29T02:54:23.745Z,18.70
2019-03-29T02:56:52.180Z,20.47
2019-03-29T02:59:20.643Z,19.33
2019-03-29T03:01:49.076Z,18.67
2019-03-29T03:04:17.558Z,19.90
2019-03-29T03:06:46.053Z,19.70
2019-03-29T03:09:14.959Z,21.87
2019-03-29T03:11:43.518Z,21.40
2019-03-29T03:14:11.977Z,20.67
2019-03-29T03:16:40.410Z,21.60
2019-03-29T03:19:08.875Z,21.10
2019-03-29T03:21:37.310Z,21.97
2019-03-29T03:24:05.851Z,22.27
2019-03-29T03:26:34.287Z,22.40
2019-03-29T03:29:02.731Z,21.87
2019-03-29T03:31:31.189Z,20.77
2019-03-29T03:33:59.624Z,21.40
2019-03-29T03:36:28.072Z,21.43
2019-03-29T03:38:56.513Z,21.67
2019-03-29T03:41:24.959Z,21.60
2019-03-29T03:43:53.414Z,21.60
2019-03-29T03:46:21.878Z,20.97
2019-03-29T03:48:50.308Z,21.50
2019-03-29T03:51:18.931Z,21.00
2019-03-29T03:53:47.438Z,21.37
2019-03-29T03:56:17.243Z,21.60
2019-03-29T03:58:46.011Z,21.90
2019-03-29T04:01:14.505Z,22.23
2019-03-29T04:03:42.954Z,23.10
2019-03-29T04:06:11.408Z,23.27
2019-03-29T04:08:39.859Z,23.97
2019-03-29T04:11:08.307Z,22.83
2019-03-29T04:13:36.755Z,23.00
2019-03-29T04:16:05.409Z,24.13
2019-03-29T04:18:33.887Z,22.97
2019-03-29T04:21:02.334Z,22.47
2019-03-29T04:23:30.782Z,22.33
2019-03-29T04:25:59.246Z,22.13
2019-03-29T04:28:27.684Z,21.57
2019-03-29T04:30:56.127Z,21.10
2019-03-29T04:33:24.587Z,21.33
2019-03-29T04:35:53.136Z,20.67
2019-03-29T04:38:21.630Z,21.27
2019-03-29T04:40:50.142Z,22.23
2019-03-29T04:43:18.582Z,20.27
2019-03-29T04:45:47.030Z,22.47
2019-03-29T04:48:15.479Z,21.53
2019-03-29T04:50:43.928Z,21.80
2019-03-29T04:53:12.369Z,21.43
2019-03-29T04:55:40.844Z,21.80
2019-03-29T04:58:09.274Z,24.47
2019-03-29T05:00:37.747Z,23.83
2019-03-29T05:03:06.259Z,26.00
2019-03-29T05:05:34.729Z,28.47
2019-03-29T05:08:03.166Z,26.93
2019-03-29T05:10:31.623Z,26.57
2019-03-29T05:13:00.072Z,25.97
2019-03-29T05:15:28.515Z,24.97
2019-03-29T05:17:56.963Z,26.10
2019-03-29T05:20:25.444Z,25.30
2019-03-29T05:22:54.023Z,25.77
2019-03-29T05:25:22.486Z,25.83
2019-03-29T05:27:50.994Z,25.20
2019-03-29T05:30:19.437Z,25.13
2019-03-29T05:32:47.955Z,25.97
2019-03-29T05:35:16.427Z,24.83
2019-03-29T05:37:44.907Z,23.20
2019-03-29T05:40:13.466Z,22.93
2019-03-29T05:42:41.980Z,25.00
2019-03-29T05:45:10.599Z,24.43
2019-03-29T05:47:39.077Z,23.20
2019-03-29T05:50:08.045Z,24.27
2019-03-29T05:52:36.549Z,24.47
2019-03-29T05:55:06.240Z,24.90
2019-03-29T05:57:34.696Z,25.33
2019-03-29T06:00:05.291Z,24.60
2019-03-29T06:02:33.743Z,24.27
2019-03-29T06:05:02.184Z,22.87
2019-03-29T06:07:30.683Z,21.33
2019-03-29T06:09:59.373Z,23.33
2019-03-29T06:12:28.103Z,22.67
2019-03-29T06:14:56.565Z,22.70
2019-03-29T06:17:25.022Z,22.57
2019-03-29T06:19:53.461Z,23.70
2019-03-29T06:22:21.923Z,23.63
2019-03-29T06:24:50.362Z,24.73
2019-03-29T06:27:18.834Z,23.47
2019-03-29T06:29:47.371Z,24.40
2019-03-29T06:32:15.891Z,26.10
2019-03-29T06:34:44.346Z,24.57
2019-03-29T06:37:14.038Z,24.87
2019-03-29T06:39:42.858Z,24.83
2019-03-29T06:42:11.338Z,24.67
2019-03-29T06:44:39.787Z,23.50
2019-03-29T06:47:08.259Z,23.63
2019-03-29T06:49:36.703Z,23.00
2019-03-29T06:52:05.166Z,23.60
2019-03-29T06:54:33.612Z,23.80
2019-03-29T06:57:02.147Z,24.23
2019-03-29T06:59:30.602Z,25.83
2019-03-29T07:01:59.070Z,24.53
2019-03-29T07:04:27.515Z,26.13
2019-03-29T07:06:55.975Z,26.83
2019-03-29T07:09:24.422Z,26.00
2019-03-29T07:11:52.905Z,24.23
2019-03-29T07:14:21.348Z,24.53
2019-03-29T07:16:49.804Z,24.07
2019-03-29T07:19:18.242Z,24.23
2019-03-29T07:21:46.704Z,24.80
2019-03-29T07:24:15.201Z,24.57
2019-03-29T07:26:43.670Z,25.40
2019-03-29T07:29:12.124Z,25.00
2019-03-29T07:31:40.586Z,26.60
2019-03-29T07:34:09.034Z,24.93
2019-03-29T07:36:37.475Z,26.20
2019-03-29T07:39:06.502Z,23.50
2019-03-29T07:41:34.963Z,24.37
2019-03-29T07:44:03.464Z,24.47
2019-03-29T07:46:31.900Z,26.00
2019-03-29T07:49:00.364Z,27.27
2019-03-29T07:51:28.813Z,25.90
2019-03-29T07:53:57.283Z,27.33
2019-03-29T07:56:25.718Z,25.23
2019-03-29T07:58:54.174Z,26.67
2019-03-29T08:01:22.615Z,26.80
2019-03-29T08:03:51.434Z,24.37
2019-03-29T08:06:20.432Z,25.30
2019-03-29T08:08:48.933Z,24.73
2019-03-29T08:11:25.975Z,26.07
2019-03-29T08:13:47.677Z,25.13
2019-03-29T08:16:16.248Z,25.93
2019-03-29T08:18:44.743Z,26.67
2019-03-29T08:21:13.195Z,26.67
2019-03-29T08:23:41.663Z,27.63
2019-03-29T08:26:10.115Z,26.20
2019-03-29T08:28:38.586Z,25.80
2019-03-29T08:31:07.017Z,27.67
2019-03-29T08:33:35.492Z,26.97
2019-03-29T08:36:03.990Z,27.73
2019-03-29T08:38:32.446Z,27.17
2019-03-29T08:41:00.896Z,27.40
2019-03-29T08:43:29.354Z,26.37
2019-03-29T08:45:58.066Z,25.63
2019-03-29T08:48:26.580Z,23.80
2019-03-29T08:50:55.023Z,23.73
2019-03-29T08:53:23.505Z,23.33
2019-03-29T08:55:51.961Z,22.20
2019-03-29T08:58:20.474Z,25.00
2019-03-29T09:00:48.943Z,24.40
2019-03-29T09:03:17.522Z,23.37
2019-03-29T09:05:46.887Z,22.83
2019-03-29T09:08:15.922Z,22.97
2019-03-29T09:10:44.364Z,21.63
2019-03-29T09:13:12.823Z,19.73
2019-03-29T09:15:41.266Z,20.50
2019-03-29T09:18:09.735Z,19.67
2019-03-29T09:20:38.183Z,21.10
2019-03-29T09:23:10.002Z,22.40
2019-03-29T09:25:40.174Z,20.63
2019-03-29T09:28:07.005Z,19.57
2019-03-29T09:30:35.451Z,19.97
2019-03-29T09:33:03.901Z,20.90
2019-03-29T09:35:32.346Z,17.57
2019-03-29T09:38:00.813Z,18.43
2019-03-29T09:40:29.250Z,18.03
2019-03-29T09:43:07.186Z,16.13
2019-03-29T09:45:27.878Z,17.13
2019-03-29T09:47:56.326Z,17.80
2019-03-29T09:50:24.790Z,17.70
2019-03-29T09:52:53.240Z,21.50
2019-03-29T09:55:21.707Z,16.40
2019-03-29T09:57:50.145Z,16.70
2019-03-29T10:00:22.940Z,16.80
2019-03-29T10:02:48.907Z,16.73
2019-03-29T10:05:20.057Z,15.87
2019-03-29T10:07:47.613Z,15.17
2019-03-29T10:10:16.080Z,15.20
2019-03-29T10:12:44.534Z,16.70
2019-03-29T10:15:13.057Z,15.87
2019-03-29T10:17:41.500Z,16.13
2019-03-29T10:20:10.030Z,12.50
2019-03-29T10:22:38.478Z,13.67
2019-03-29T10:25:18.583Z,14.23
2019-03-29T10:27:37.241Z,14.63
2019-03-29T10:30:08.036Z,14.90
2019-03-29T10:32:36.481Z,14.40
2019-03-29T10:35:08.274Z,12.90
2019-03-29T10:37:36.722Z,13.17
2019-03-29T10:40:07.134Z,11.90
2019-03-29T10:42:35.558Z,10.17
2019-03-29T10:45:04.862Z,10.20
2019-03-29T10:47:43.125Z,10.07
2019-03-29T10:50:04.413Z,10.70
2019-03-29T10:52:32.864Z,10.10
2019-03-29T10:55:01.326Z,7.03
2019-03-29T10:57:29.878Z,6.43
2019-03-29T10:59:58.323Z,5.87
2019-03-29T11:02:26.759Z,4.53
2019-03-29T11:04:55.207Z,4.57
2019-03-29T11:07:23.637Z,2.87
2019-03-29T11:09:52.088Z,2.40
2019-03-29T11:12:20.519Z,2.97
2019-03-29T11:14:48.970Z,4.27
2019-03-29T11:17:17.417Z,4.70
2019-03-29T11:19:45.864Z,4.87
2019-03-29T11:22:14.312Z,3.70
2019-03-29T11:24:42.751Z,3.63
2019-03-29T11:27:11.203Z,3.20
2019-03-29T11:29:39.656Z,3.50
2019-03-29T11:32:08.206Z,3.17
2019-03-29T11:34:36.685Z,3.30
2019-03-29T11:37:05.150Z,3.70
2019-03-29T11:39:33.607Z,4.30
2019-03-29T11:42:03.610Z,3.87
2019-03-29T11:44:32.296Z,4.07
2019-03-29T11:47:00.730Z,4.37
2019-03-29T11:49:29.195Z,4.37
2019-03-29T11:51:57.640Z,4.53
2019-03-29T11:54:26.090Z,6.13
2019-03-29T11:56:54.537Z,4.97
2019-03-29T11:59:22.985Z,4.63
2019-03-29T12:01:51.419Z,4.80
2019-03-29T12:04:19.854Z,4.97
2019-03-29T12:06:48.311Z,5.03
2019-03-29T12:09:16.756Z,5.60
2019-03-29T12:11:45.222Z,5.10
2019-03-29T12:14:13.653Z,4.60
2019-03-29T12:16:42.182Z,4.43
2019-03-29T12:19:10.623Z,4.50
2019-03-29T12:21:39.148Z,4.43
2019-03-29T12:24:07.576Z,4.80
2019-03-29T12:26:36.029Z,4.87
2019-03-29T12:29:04.548Z,5.23
2019-03-29T12:31:33.013Z,4.23
2019-03-29T12:34:01.517Z,4.40
2019-03-29T12:36:29.997Z,4.70
2019-03-29T12:38:58.500Z,4.47
2019-03-29T12:41:26.951Z,4.83
2019-03-29T12:43:56.238Z,4.93
2019-03-29T12:46:24.806Z,4.67
2019-03-29T12:48:53.243Z,4.37
2019-03-29T12:51:21.694Z,4.30
2019-03-29T12:53:50.136Z,4.17
2019-03-29T12:56:18.590Z,4.67
2019-03-29T12:58:47.094Z,4.30
2019-03-29T13:01:15.591Z,4.60
2019-03-29T13:03:44.116Z,3.90
2019-03-29T13:06:12.654Z,4.13
2019-03-29T13:08:42.039Z,4.43
2019-03-29T13:11:10.498Z,4.83
2019-03-29T13:13:38.929Z,4.10
2019-03-29T13:16:07.414Z,3.97
2019-03-29T13:18:35.837Z,5.33
2019-03-29T13:21:04.364Z,3.70
2019-03-29T13:23:32.810Z,3.73
2019-03-29T13:26:01.283Z,4.50
2019-03-29T13:28:29.727Z,3.80
2019-03-29T13:30:58.182Z,3.97
2019-03-29T13:33:26.639Z,4.03
2019-03-29T13:35:55.059Z,4.10
2019-03-29T13:38:23.514Z,3.70
2019-03-29T13:40:51.947Z,3.70
2019-03-29T13:43:20.402Z,4.13
2019-03-29T13:45:48.846Z,4.20
2019-03-29T13:48:17.297Z,3.90
2019-03-29T13:50:45.734Z,3.90
2019-03-29T13:53:14.184Z,4.03
2019-03-29T13:55:42.625Z,4.07
2019-03-29T13:58:11.100Z,4.57
2019-03-29T14:00:39.615Z,4.67
2019-03-29T14:03:08.069Z,3.93
2019-03-29T14:05:36.522Z,4.43
2019-03-29T14:08:04.969Z,4.30
2019-03-29T14:10:33.410Z,4.63
2019-03-29T14:13:01.871Z,4.77
2019-03-29T14:15:30.308Z,4.70
2019-03-29T14:17:58.754Z,5.27
2019-03-29T14:20:31.911Z,5.37
2019-03-29T14:23:00.789Z,6.27
2019-03-29T14:25:29.227Z,6.73
2019-03-29T14:27:57.666Z,6.50
2019-03-29T14:30:26.106Z,6.00
2019-03-29T14:32:54.558Z,6.13
2019-03-29T14:35:22.993Z,5.47
2019-03-29T14:37:51.454Z,5.77
2019-03-29T14:40:19.897Z,5.43
2019-03-29T14:42:48.360Z,5.40
2019-03-29T14:45:16.887Z,5.93
2019-03-29T14:47:45.345Z,6.53
2019-03-29T14:50:14.441Z,6.07
2019-03-29T14:52:42.911Z,5.90
2019-03-29T14:55:11.496Z,6.80
2019-03-29T14:57:39.937Z,6.27
2019-03-29T15:00:10.774Z,6.70
2019-03-29T15:02:39.223Z,6.43
2019-03-29T15:05:08.298Z,6.50
2019-03-29T15:07:37.126Z,6.23
2019-03-29T15:10:08.274Z,6.90
2019-03-29T15:12:36.722Z,6.50
2019-03-29T15:15:07.153Z,6.93
2019-03-29T15:17:35.830Z,6.83
2019-03-29T15:20:05.910Z,6.80
2019-03-29T15:22:34.367Z,6.20
2019-03-29T15:25:02.797Z,6.80
2019-03-29T15:27:31.253Z,6.07
2019-03-29T15:29:59.696Z,6.80
2019-03-29T15:32:28.158Z,6.30
2019-03-29T15:34:56.590Z,5.83
2019-03-29T15:37:25.024Z,6.40
2019-03-29T15:39:53.471Z,6.67
2019-03-29T15:42:21.896Z,6.17
2019-03-29T15:44:50.338Z,6.10
2019-03-29T15:47:18.775Z,6.27
2019-03-29T15:49:55.813Z,6.17
2019-03-29T15:52:17.385Z,6.17
2019-03-29T15:54:45.841Z,5.83
2019-03-29T15:57:14.273Z,6.67
2019-03-29T15:59:42.756Z,6.37
2019-03-29T16:02:11.204Z,5.93
2019-03-29T16:04:39.665Z,6.23
2019-03-29T16:07:08.105Z,6.17
2019-03-29T16:09:36.553Z,5.67
2019-03-29T16:12:05.058Z,5.83
2019-03-29T16:14:33.510Z,6.33
2019-03-29T16:17:01.940Z,5.50
2019-03-29T16:19:30.464Z,6.23
2019-03-29T16:21:58.919Z,5.53
2019-03-29T16:24:27.446Z,5.57
2019-03-29T16:26:55.879Z,5.87
2019-03-29T16:29:24.344Z,5.27
2019-03-29T16:31:52.783Z,5.20
2019-03-29T16:34:21.251Z,5.03
2019-03-29T16:36:49.689Z,4.83
2019-03-29T16:39:18.126Z,5.30
2019-03-29T16:41:46.595Z,4.77
2019-03-29T16:44:15.026Z,5.40
2019-03-29T16:46:43.495Z,5.30
2019-03-29T16:49:11.951Z,5.07
2019-03-29T16:51:40.407Z,7.33
2019-03-29T16:54:08.845Z,5.60
2019-03-29T16:56:37.322Z,5.73
2019-03-29T16:59:05.762Z,5.47
2019-03-29T17:01:34.244Z,5.20
2019-03-29T17:04:02.716Z,6.03
2019-03-29T17:06:31.232Z,7.40
2019-03-29T17:08:59.680Z,5.60
2019-03-29T17:11:28.129Z,6.07
2019-03-29T17:13:56.574Z,7.00
2019-03-29T17:16:30.650Z,6.40
2019-03-29T17:18:56.000Z,6.23
2019-03-29T17:21:24.526Z,6.50
2019-03-29T17:23:53.120Z,6.03
2019-03-29T17:26:21.627Z,6.37
2019-03-29T17:28:50.070Z,8.07
2019-03-29T17:31:18.869Z,6.57
2019-03-29T17:33:47.299Z,6.50
2019-03-29T17:36:15.752Z,9.67
2019-03-29T17:38:44.185Z,6.60
2019-03-29T17:41:12.715Z,7.00
2019-03-29T17:43:41.172Z,7.17
2019-03-29T17:46:16.070Z,7.47
2019-03-29T17:48:39.805Z,7.90
2019-03-29T17:51:08.258Z,6.83
2019-03-29T17:53:36.704Z,6.80
2019-03-29T17:56:05.123Z,6.80
2019-03-29T17:58:33.577Z,6.80
2019-03-29T18:01:02.004Z,6.10
2019-03-29T18:03:30.467Z,6.40
2019-03-29T18:05:58.916Z,6.73
2019-03-29T18:08:27.371Z,6.87
2019-03-29T18:10:55.822Z,7.60
2019-03-29T18:13:24.289Z,7.47
2019-03-29T18:15:52.735Z,7.47
2019-03-29T18:18:21.202Z,7.70
2019-03-29T18:20:49.654Z,7.93
2019-03-29T18:23:18.121Z,8.00
2019-03-29T18:25:46.602Z,8.30
2019-03-29T18:28:15.105Z,8.20
2019-03-29T18:30:43.999Z,9.53
2019-03-29T18:33:12.516Z,8.30
2019-03-29T18:35:40.949Z,8.50
2019-03-29T18:38:09.419Z,8.20
2019-03-29T18:40:37.848Z,8.57
2019-03-29T18:43:06.285Z,7.87
2019-03-29T18:45:34.723Z,8.37
2019-03-29T18:48:03.185Z,8.53
2019-03-29T18:50:31.615Z,11.07
2019-03-29T18:53:00.073Z,10.03
2019-03-29T18:55:28.528Z,8.90
2019-03-29T18:57:57.036Z,8.97
2019-03-29T19:00:30.378Z,9.50
2019-03-29T19:02:59.104Z,10.03
2019-03-29T19:05:27.823Z,9.37
2019-03-29T19:07:56.276Z,8.90
2019-03-29T19:10:24.709Z,9.13
2019-03-29T19:12:53.158Z,8.73
2019-03-29T19:15:21.672Z,9.10
2019-03-29T19:17:50.130Z,9.20
2019-03-29T19:20:27.163Z,9.03
2019-03-29T19:22:48.732Z,9.60
2019-03-29T19:25:17.212Z,9.57
2019-03-29T19:27:45.737Z,9.77
2019-03-29T19:30:14.515Z,9.93
2019-03-29T19:32:42.973Z,9.53
2019-03-29T19:35:11.415Z,9.77
2019-03-29T19:37:39.887Z,9.80
2019-03-29T19:40:09.321Z,10.37
2019-03-29T19:42:37.793Z,10.80
2019-03-29T19:45:07.975Z,10.77
2019-03-29T19:47:36.489Z,10.90
2019-03-29T19:50:06.277Z,10.60
2019-03-29T19:52:34.810Z,9.90
2019-03-29T19:55:03.338Z,9.83
2019-03-29T19:57:31.821Z,10.57
2019-03-29T20:00:00.353Z,10.40
2019-03-29T20:02:28.880Z,10.00
2019-03-29T20:04:57.341Z,10.77
2019-03-29T20:07:25.779Z,9.83
2019-03-29T20:09:54.257Z,10.03
2019-03-29T20:12:25.097Z,10.03
2019-03-29T20:14:52.907Z,13.07
2019-03-29T20:17:27.366Z,15.80
2019-03-29T20:19:51.567Z,23.43
2019-03-29T20:22:20.020Z,19.93
2019-03-29T20:24:48.488Z,20.70
2019-03-29T20:27:17.007Z,15.70
2019-03-29T20:29:45.523Z,12.47
2019-03-29T20:32:13.960Z,11.23
2019-03-29T20:34:42.414Z,11.43
2019-03-29T20:37:10.877Z,12.60
2019-03-29T20:39:39.378Z,11.17
2019-03-29T20:42:07.817Z,10.27
2019-03-29T20:44:36.278Z,11.97
2019-03-29T20:47:04.730Z,11.33
2019-03-29T20:49:33.177Z,11.87
2019-03-29T20:52:01.633Z,12.43
2019-03-29T20:54:30.085Z,11.37
2019-03-29T20:56:58.519Z,11.77
2019-03-29T20:59:26.971Z,11.80
2019-03-29T21:01:55.418Z,11.90
2019-03-29T21:04:23.905Z,11.57
2019-03-29T21:06:52.415Z,11.77
2019-03-29T21:09:20.870Z,10.93
2019-03-29T21:11:49.436Z,10.60
2019-03-29T21:14:17.912Z,11.53
2019-03-29T21:16:46.348Z,11.23
2019-03-29T21:19:14.814Z,10.97
2019-03-29T21:21:43.241Z,11.20
2019-03-29T21:24:11.704Z,10.60
2019-03-29T21:26:40.146Z,10.83
2019-03-29T21:29:08.635Z,10.33
2019-03-29T21:31:37.079Z,10.77
2019-03-29T21:34:05.555Z,10.00
2019-03-29T21:36:33.990Z,11.20
2019-03-29T21:39:02.514Z,10.93
2019-03-29T21:41:31.028Z,12.07
2019-03-29T21:43:59.490Z,12.77
2019-03-29T21:46:27.967Z,10.00
2019-03-29T21:48:56.410Z,10.67
2019-03-29T21:51:24.853Z,9.77
2019-03-29T21:53:53.392Z,10.03
2019-03-29T21:56:21.836Z,9.67
2019-03-29T21:58:50.305Z,9.03
2019-03-29T22:01:18.757Z,9.67
2019-03-29T22:03:47.503Z,10.33
2019-03-29T22:06:16.021Z,10.20
2019-03-29T22:08:44.457Z,8.87
2019-03-29T22:11:12.925Z,8.77
2019-03-29T22:13:41.351Z,9.37
2019-03-29T22:16:09.798Z,8.80
2019-03-29T22:18:38.529Z,10.03
2019-03-29T22:21:07.094Z,9.43
2019-03-29T22:23:35.547Z,9.27
2019-03-29T22:26:04.017Z,8.60
2019-03-29T22:28:32.443Z,9.43
2019-03-29T22:31:00.978Z,10.23
2019-03-29T22:33:29.414Z,8.97
2019-03-29T22:35:57.871Z,9.13
2019-03-29T22:38:26.319Z,9.63
2019-03-29T22:40:54.836Z,9.87
2019-03-29T22:43:23.268Z,9.60
2019-03-29T22:45:51.737Z,9.50
2019-03-29T22:48:20.194Z,9.07
2019-03-29T22:50:48.689Z,9.23
2019-03-29T22:53:17.215Z,8.43
2019-03-29T22:55:45.651Z,8.97
2019-03-29T22:58:14.118Z,10.17
2019-03-29T23:00:48.274Z,9.67
2019-03-29T23:03:17.270Z,10.30
2019-03-29T23:05:45.714Z,9.33
2019-03-29T23:08:14.159Z,8.67
2019-03-29T23:10:42.611Z,8.10
2019-03-29T23:13:11.070Z,7.80
2019-03-29T23:15:39.508Z,8.50
2019-03-29T23:18:07.952Z,8.07
2019-03-29T23:20:36.389Z,7.83
2019-03-29T23:23:04.835Z,8.03
2019-03-29T23:25:33.258Z,7.47
2019-03-29T23:28:01.706Z,7.57
2019-03-29T23:30:30.133Z,7.70
2019-03-29T23:32:58.576Z,8.27
2019-03-29T23:35:27.026Z,6.90
2019-03-29T23:37:55.475Z,7.93
2019-03-29T23:40:23.910Z,7.57
2019-03-29T23:42:52.364Z,7.80
2019-03-29T23:45:20.798Z,8.17
2019-03-29T23:47:49.265Z,7.67
2019-03-29T23:50:17.695Z,7.87
2019-03-29T23:52:46.129Z,8.20
2019-03-29T23:55:14.573Z,8.20
2019-03-29T23:57:43.028Z,7.37
